Time;durP1;ratioP1;P1;durP2;ratioP2;P2;SDS_P1;SDS_P2;PMS_P1;PMS_P2;Temp;Humidity;BMP_temperature;BMP_pressure;BME280_temperature;BME280_humidity;BME280_pressure;Samples;Min_cycle;Max_cycle;Signal;HPM_P1;HPM_P2
2021/08/22 00:00:10;;;;;;;3.30;1.85;;;28.40;48.50;;;;;;5053616;28;20043;-53
2021/08/22 00:02:37;;;;;;;4.53;2.00;;;28.40;48.40;;;;;;5053468;28;20021;-52
2021/08/22 00:05:04;;;;;;;5.15;2.42;;;28.40;48.50;;;;;;5053709;28;20019;-52
2021/08/22 00:07:31;;;;;;;4.90;2.05;;;28.40;48.50;;;;;;5053706;28;20055;-52
2021/08/22 00:09:58;;;;;;;5.57;2.13;;;28.30;48.70;;;;;;5053718;28;20032;-52
2021/08/22 00:12:24;;;;;;;5.18;2.00;;;28.30;48.70;;;;;;5053862;28;20032;-52
2021/08/22 00:14:51;;;;;;;6.78;1.92;;;28.30;48.70;;;;;;5053368;28;20025;-52
2021/08/22 00:17:18;;;;;;;5.93;1.98;;;28.30;48.70;;;;;;5053607;28;20024;-53
2021/08/22 00:19:46;;;;;;;3.90;1.92;;;28.30;48.80;;;;;;5053720;28;20029;-53
2021/08/22 00:22:12;;;;;;;4.03;1.95;;;28.30;48.90;;;;;;5053226;28;20068;-52
2021/08/22 00:24:39;;;;;;;4.25;2.00;;;28.20;48.90;;;;;;5053542;28;20025;-52
2021/08/22 00:27:05;;;;;;;4.13;1.92;;;28.20;48.90;;;;;;5053527;28;20059;-54
2021/08/22 00:29:32;;;;;;;4.13;1.75;;;28.20;49.20;;;;;;5053181;28;20491;-53
2021/08/22 00:31:58;;;;;;;5.22;2.10;;;28.20;49.30;;;;;;5053522;28;20031;-53
2021/08/22 00:34:25;;;;;;;3.75;1.70;;;28.20;49.10;;;;;;5053460;28;20104;-52
2021/08/22 00:36:54;;;;;;;6.63;1.90;;;28.20;49.20;;;;;;5053682;28;20035;-52
2021/08/22 00:39:23;;;;;;;3.67;1.92;;;28.20;49.30;;;;;;5053533;28;20035;-52
2021/08/22 00:41:50;;;;;;;4.28;1.70;;;28.20;49.50;;;;;;5056980;28;20028;-53
2021/08/22 00:44:17;;;;;;;4.28;1.80;;;28.10;49.60;;;;;;5057216;28;20039;-52
2021/08/22 00:46:44;;;;;;;4.60;1.95;;;28.10;49.70;;;;;;5056900;28;20021;-52
2021/08/22 00:49:11;;;;;;;6.80;2.13;;;28.10;49.80;;;;;;5057108;28;20361;-52
2021/08/22 00:51:40;;;;;;;3.63;1.63;;;28.10;49.90;;;;;;5057086;28;20090;-53
2021/08/22 00:54:07;;;;;;;4.93;1.80;;;28.10;50.00;;;;;;5057308;28;20354;-52
2021/08/22 00:56:34;;;;;;;4.88;2.00;;;28.10;50.10;;;;;;5057160;28;20047;-52
2021/08/22 00:59:05;;;;;;;4.55;2.22;;;28.10;50.20;;;;;;5057166;28;20112;-52
2021/08/22 01:01:33;;;;;;;6.97;2.05;;;28.10;50.10;;;;;;5056828;28;20450;-53
2021/08/22 01:04:26;;;;;;;3.58;1.73;;;28.10;50.20;;;;;;5056822;28;20024;-53
2021/08/22 01:06:56;;;;;;;4.10;2.00;;;28.10;50.50;;;;;;5050918;28;20146;-53
2021/08/22 01:09:40;;;;;;;7.07;1.98;;;28.00;50.50;;;;;;5056699;28;20025;-52
2021/08/22 01:12:21;;;;;;;5.10;1.92;;;28.10;50.60;;;;;;5057079;28;20438;-53
2021/08/22 01:14:51;;;;;;;3.30;1.75;;;28.10;50.60;;;;;;5056712;28;20354;-52
2021/08/22 01:17:20;;;;;;;5.93;1.90;;;28.10;50.80;;;;;;5056914;28;20369;-52
2021/08/22 01:20:21;;;;;;;3.13;1.90;;;28.10;50.80;;;;;;5056603;28;20029;-52
2021/08/22 01:22:51;;;;;;;7.70;2.20;;;28.10;50.90;;;;;;5056782;28;20047;-53
2021/08/22 01:25:17;;;;;;;6.25;2.20;;;28.10;51.30;;;;;;5056504;28;20025;-53
2021/08/22 01:27:46;;;;;;;5.90;2.10;;;28.10;50.80;;;;;;5056929;28;20021;-53
2021/08/22 01:30:15;;;;;;;6.13;2.20;;;28.10;50.90;;;;;;5056387;28;20025;-52
2021/08/22 01:32:47;;;;;;;6.38;2.00;;;28.10;50.90;;;;;;5056024;28;20350;-52
2021/08/22 01:35:20;;;;;;;6.65;1.92;;;28.10;51.10;;;;;;5056268;28;20025;-53
2021/08/22 01:37:48;;;;;;;4.05;1.95;;;28.10;51.10;;;;;;5056199;28;20024;-53
2021/08/22 01:40:19;;;;;;;4.40;1.90;;;28.10;51.20;;;;;;5055763;28;20044;-53
2021/08/22 01:42:47;;;;;;;4.53;2.08;;;28.10;51.20;;;;;;5055925;28;20451;-52
2021/08/22 01:45:17;;;;;;;5.88;2.22;;;28.10;51.30;;;;;;5056062;28;20028;-53
2021/08/22 01:47:47;;;;;;;4.00;2.00;;;28.10;51.20;;;;;;5055962;28;20025;-52
2021/08/22 01:50:20;;;;;;;6.05;2.33;;;28.00;50.80;;;;;;5056030;28;20021;-52
2021/08/22 01:52:52;;;;;;;4.35;1.90;;;28.00;50.60;;;;;;5054890;28;20021;-53
2021/08/22 01:55:18;;;;;;;3.67;1.83;;;28.00;50.90;;;;;;5056167;28;20028;-52
2021/08/22 01:57:45;;;;;;;4.18;1.83;;;28.00;50.90;;;;;;5056108;28;20023;-53
2021/08/22 02:00:14;;;;;;;5.35;1.90;;;28.00;51.10;;;;;;5055831;28;20029;-52
2021/08/22 02:02:53;;;;;;;5.45;1.88;;;28.00;51.20;;;;;;5056034;28;20514;-52
2021/08/22 02:05:21;;;;;;;5.80;2.10;;;28.00;50.90;;;;;;5055995;28;20021;-52
2021/08/22 02:07:48;;;;;;;6.20;2.45;;;27.90;51.10;;;;;;5055358;28;20029;-52
2021/08/22 02:10:21;;;;;;;9.25;2.20;;;27.90;50.60;;;;;;5055528;28;20025;-53
2021/08/22 02:12:49;;;;;;;7.63;2.15;;;27.90;50.20;;;;;;5056194;28;20025;-52
2021/08/22 02:15:30;;;;;;;5.70;2.33;;;27.80;50.30;;;;;;5055104;28;20469;-52
2021/08/22 02:18:11;;;;;;;8.93;2.65;;;27.80;50.10;;;;;;5055996;28;20021;-53
2021/08/22 02:20:39;;;;;;;7.28;2.72;;;27.80;50.40;;;;;;5055175;28;20044;-52
2021/08/22 02:23:08;;;;;;;6.15;2.67;;;27.80;49.70;;;;;;5055522;28;20029;-53
2021/08/22 02:25:36;;;;;;;6.38;2.20;;;27.70;49.30;;;;;;5055012;28;20394;-53
2021/08/22 02:28:03;;;;;;;6.97;2.92;;;27.70;49.30;;;;;;5054911;28;20025;-52
2021/08/22 02:30:35;;;;;;;7.63;2.38;;;27.60;49.20;;;;;;5055248;28;20028;-53
2021/08/22 02:33:03;;;;;;;7.32;2.78;;;27.60;49.00;;;;;;5055049;28;20099;-53
2021/08/22 02:35:29;;;;;;;9.00;2.83;;;27.60;49.00;;;;;;5055110;28;20031;-52
2021/08/22 02:37:56;;;;;;;9.27;3.10;;;27.60;49.00;;;;;;5055040;28;20061;-54
2021/08/22 02:40:23;;;;;;;9.43;3.13;;;27.60;48.90;;;;;;5054967;28;20072;-53
2021/08/22 02:42:51;;;;;;;9.60;3.22;;;27.50;48.70;;;;;;5054704;28;20480;-53
2021/08/22 02:45:18;;;;;;;8.88;3.35;;;27.40;48.60;;;;;;5054897;28;20438;-52
2021/08/22 02:47:44;;;;;;;13.35;3.30;;;27.40;48.70;;;;;;5054867;28;20078;-52
2021/08/22 02:50:11;;;;;;;7.32;2.85;;;27.40;48.70;;;;;;5054514;28;20076;-52
2021/08/22 02:52:38;;;;;;;12.70;3.40;;;27.30;48.60;;;;;;5054504;28;20458;-53
2021/08/22 02:55:04;;;;;;;8.20;3.08;;;27.30;48.60;;;;;;5054676;28;20342;-53
2021/08/22 02:57:31;;;;;;;8.35;3.25;;;27.20;48.50;;;;;;5054376;28;20477;-53
2021/08/22 02:59:57;;;;;;;8.48;3.42;;;27.20;48.50;;;;;;5054452;28;20025;-52
2021/08/22 03:02:24;;;;;;;13.35;3.65;;;27.20;48.40;;;;;;5054168;28;20397;-52
2021/08/22 03:04:51;;;;;;;9.20;3.35;;;27.20;48.20;;;;;;5054229;28;20457;-52
2021/08/22 03:07:17;;;;;;;14.38;3.45;;;27.10;48.30;;;;;;5054019;28;20094;-53
2021/08/22 03:09:45;;;;;;;10.77;3.45;;;27.10;48.30;;;;;;5053040;28;20024;-53
2021/08/22 03:12:12;;;;;;;10.20;3.95;;;27.00;48.20;;;;;;5053671;28;20021;-53
2021/08/22 03:14:38;;;;;;;12.77;3.78;;;27.00;48.20;;;;;;5050658;28;20028;-52
2021/08/22 03:17:05;;;;;;;12.07;3.33;;;26.90;48.10;;;;;;5043288;28;20416;-52
2021/08/22 03:19:31;;;;;;;13.32;4.00;;;26.90;48.20;;;;;;5034275;28;20029;-53
2021/08/22 03:21:58;;;;;;;10.75;3.13;;;26.90;48.20;;;;;;5051853;28;20017;-53
2021/08/22 03:24:25;;;;;;;13.13;3.70;;;26.90;48.30;;;;;;5052008;28;20028;-52
2021/08/22 03:26:51;;;;;;;10.10;3.30;;;26.80;48.30;;;;;;5054824;28;20516;-53
2021/08/22 03:29:17;;;;;;;10.82;3.50;;;26.80;48.50;;;;;;5056362;28;20021;-52
2021/08/22 03:31:44;;;;;;;11.70;3.85;;;26.70;48.60;;;;;;5060043;28;20028;-52
2021/08/22 03:34:11;;;;;;;8.20;3.42;;;26.70;48.40;;;;;;5053443;28;20027;-52
2021/08/22 03:36:37;;;;;;;11.68;3.70;;;26.70;48.40;;;;;;5053975;28;20016;-53
2021/08/22 03:39:05;;;;;;;9.68;3.38;;;26.70;48.50;;;;;;5053038;28;20040;-54
2021/08/22 03:41:33;;;;;;;9.23;3.35;;;26.60;48.30;;;;;;5053674;28;20164;-53
2021/08/22 03:44:00;;;;;;;11.13;3.65;;;26.60;48.50;;;;;;5053666;28;20021;-53
2021/08/22 03:46:26;;;;;;;12.05;3.85;;;26.60;48.30;;;;;;5053213;28;20484;-52
2021/08/22 03:48:53;;;;;;;10.48;3.70;;;26.50;48.20;;;;;;5053456;28;20037;-52
2021/08/22 03:51:23;;;;;;;11.27;3.40;;;26.50;48.20;;;;;;5054753;28;20414;-53
2021/08/22 03:53:50;;;;;;;11.77;3.78;;;26.40;48.30;;;;;;5058395;28;20024;-53
2021/08/22 03:56:16;;;;;;;8.90;3.50;;;26.40;48.40;;;;;;5053355;28;20094;-53
2021/08/22 03:58:43;;;;;;;10.20;3.22;;;26.30;48.40;;;;;;5052590;28;20031;-53
2021/08/22 04:01:10;;;;;;;9.07;3.63;;;26.40;48.50;;;;;;5053288;28;20039;-53
2021/08/22 04:03:40;;;;;;;11.98;3.35;;;26.30;48.50;;;;;;5053999;28;20029;-53
2021/08/22 04:06:08;;;;;;;12.38;3.65;;;26.30;48.50;;;;;;5053359;28;20021;-52
2021/08/22 04:08:39;;;;;;;12.77;3.72;;;26.30;48.70;;;;;;5053507;28;20020;-52
2021/08/22 04:11:06;;;;;;;12.88;4.18;;;26.20;48.80;;;;;;5052362;28;20059;-53
2021/08/22 04:13:32;;;;;;;14.27;4.18;;;26.20;49.30;;;;;;5053402;28;20399;-52
2021/08/22 04:15:58;;;;;;;11.63;3.38;;;26.20;50.30;;;;;;5056085;28;20045;-52
2021/08/22 04:18:25;;;;;;;18.50;4.68;;;26.10;50.70;;;;;;5057666;28;20449;-53
2021/08/22 04:20:52;;;;;;;11.73;4.10;;;26.10;52.20;;;;;;5056504;28;20031;-53
2021/08/22 04:23:18;;;;;;;10.82;4.30;;;26.10;51.80;;;;;;5056911;28;20033;-53
2021/08/22 04:25:45;;;;;;;16.52;4.25;;;26.10;52.50;;;;;;5056425;28;20067;-52
2021/08/22 04:28:13;;;;;;;8.65;3.40;;;26.00;52.60;;;;;;5056738;28;20028;-52
2021/08/22 04:30:39;;;;;;;16.33;4.13;;;26.00;52.30;;;;;;5055866;28;20364;-53
2021/08/22 04:33:06;;;;;;;20.45;4.15;;;26.00;52.30;;;;;;5075808;28;20020;-53
2021/08/22 04:35:32;;;;;;;8.70;3.30;;;26.00;52.50;;;;;;5072322;28;20522;-53
2021/08/22 04:37:59;;;;;;;10.43;3.70;;;25.90;52.10;;;;;;5059829;28;20118;-52
2021/08/22 04:40:25;;;;;;;9.23;3.22;;;25.90;52.20;;;;;;5057094;28;20461;-53
2021/08/22 04:42:52;;;;;;;11.23;3.17;;;25.90;51.90;;;;;;5058906;28;20017;-52
2021/08/22 04:45:18;;;;;;;8.77;3.03;;;25.90;52.10;;;;;;5056156;28;20104;-53
2021/08/22 04:47:45;;;;;;;8.95;3.38;;;25.90;51.90;;;;;;5056210;28;20028;-53
2021/08/22 04:50:11;;;;;;;11.88;3.33;;;25.90;51.80;;;;;;5056192;28;20020;-53
2021/08/22 04:52:38;;;;;;;10.68;3.17;;;25.80;51.80;;;;;;5056460;28;20021;-52
2021/08/22 04:55:05;;;;;;;12.00;3.50;;;25.80;52.30;;;;;;5056729;28;20013;-53
2021/08/22 04:57:33;;;;;;;10.05;3.15;;;25.70;51.50;;;;;;5056565;28;20029;-52
2021/08/22 05:00:00;;;;;;;10.32;4.07;;;25.80;51.50;;;;;;5055456;28;20039;-53
2021/08/22 05:02:26;;;;;;;9.38;3.40;;;25.70;51.30;;;;;;5053652;28;20040;-52
2021/08/22 05:04:53;;;;;;;9.20;3.38;;;25.70;51.20;;;;;;5055609;28;20029;-53
2021/08/22 05:07:19;;;;;;;13.43;4.00;;;25.70;51.40;;;;;;5054410;28;20049;-53
2021/08/22 05:09:46;;;;;;;13.35;4.03;;;25.60;51.20;;;;;;5055956;28;20060;-52
2021/08/22 05:12:12;;;;;;;14.13;3.78;;;25.60;51.00;;;;;;5056194;28;20025;-53
2021/08/22 05:14:39;;;;;;;13.13;4.03;;;25.60;50.80;;;;;;5056139;28;20404;-52
2021/08/22 05:17:05;;;;;;;10.15;3.97;;;25.50;50.50;;;;;;5056777;28;20041;-53
2021/08/22 05:19:32;;;;;;;12.60;3.80;;;25.50;50.60;;;;;;5056493;28;20476;-52
2021/08/22 05:21:58;;;;;;;11.15;3.47;;;25.50;50.70;;;;;;5056257;28;20025;-53
2021/08/22 05:24:25;;;;;;;13.15;3.88;;;25.40;50.60;;;;;;5055364;28;20028;-52
2021/08/22 05:26:51;;;;;;;14.05;4.07;;;25.40;50.70;;;;;;5055530;28;20021;-53
2021/08/22 05:29:18;;;;;;;12.98;3.95;;;25.40;50.40;;;;;;5055654;28;20056;-51
2021/08/22 05:31:44;;;;;;;12.27;3.92;;;25.40;50.40;;;;;;5054318;28;20032;-53
2021/08/22 05:34:11;;;;;;;11.35;4.13;;;25.30;50.30;;;;;;5056275;28;20444;-52
2021/08/22 05:36:38;;;;;;;10.10;4.03;;;25.30;50.30;;;;;;5055418;28;20071;-53
2021/08/22 05:39:05;;;;;;;13.00;4.78;;;25.20;50.30;;;;;;5055672;28;20108;-53
2021/08/22 05:41:32;;;;;;;10.73;3.53;;;25.10;50.10;;;;;;5055936;28;20108;-52
2021/08/22 05:44:00;;;;;;;10.82;3.88;;;25.10;50.00;;;;;;5056122;28;20108;-53
2021/08/22 05:46:27;;;;;;;10.45;3.70;;;25.10;50.00;;;;;;5054299;28;20041;-53
2021/08/22 05:48:54;;;;;;;10.75;3.75;;;25.10;50.10;;;;;;5055172;28;20025;-52
2021/08/22 05:51:21;;;;;;;11.93;3.88;;;25.00;50.10;;;;;;5055962;28;20037;-53
2021/08/22 05:53:48;;;;;;;10.25;3.80;;;25.00;50.00;;;;;;5056362;28;20025;-52
2021/08/22 05:56:17;;;;;;;12.02;3.90;;;24.90;50.00;;;;;;5055599;28;20111;-53
2021/08/22 05:58:45;;;;;;;11.05;3.60;;;24.90;50.10;;;;;;5054238;28;20342;-53
2021/08/22 06:01:11;;;;;;;9.90;3.53;;;24.90;50.30;;;;;;5053873;28;20044;-52
2021/08/22 06:03:38;;;;;;;8.60;3.78;;;24.80;50.30;;;;;;5055177;28;20542;-52
2021/08/22 06:06:07;;;;;;;9.60;3.40;;;24.80;50.30;;;;;;5055488;28;20037;-53
2021/08/22 06:08:34;;;;;;;12.10;3.95;;;24.70;50.20;;;;;;5055573;28;20067;-53
2021/08/22 06:11:01;;;;;;;9.38;2.97;;;24.70;50.30;;;;;;5055031;28;20044;-52
2021/08/22 06:13:27;;;;;;;9.57;3.38;;;24.70;50.30;;;;;;5055499;28;20043;-53
2021/08/22 06:15:54;;;;;;;10.20;3.42;;;24.60;50.50;;;;;;5054833;28;20037;-53
2021/08/22 06:18:21;;;;;;;10.80;3.55;;;24.60;50.60;;;;;;5055426;28;20032;-53
2021/08/22 06:20:47;;;;;;;12.38;3.47;;;24.60;50.70;;;;;;5055131;28;20041;-53
2021/08/22 06:23:14;;;;;;;8.73;3.63;;;24.50;50.70;;;;;;5054704;28;20013;-52
2021/08/22 06:25:41;;;;;;;8.75;3.33;;;24.50;50.80;;;;;;5054967;28;20028;-52
2021/08/22 06:28:07;;;;;;;10.23;3.20;;;24.50;50.70;;;;;;5053731;28;20047;-52
2021/08/22 06:30:34;;;;;;;8.98;3.38;;;24.40;50.80;;;;;;5054565;28;20119;-52
2021/08/22 06:33:00;;;;;;;9.90;3.65;;;24.40;50.80;;;;;;5054613;28;20029;-52
2021/08/22 06:35:27;;;;;;;10.73;3.20;;;24.30;50.80;;;;;;5054646;28;20020;-52
2021/08/22 06:37:53;;;;;;;12.93;3.10;;;24.30;51.00;;;;;;5054716;28;20025;-52
2021/08/22 06:40:20;;;;;;;9.85;3.35;;;24.30;51.00;;;;;;5054265;28;20044;-53
2021/08/22 06:42:47;;;;;;;8.75;3.40;;;24.20;51.00;;;;;;5054625;28;20025;-53
2021/08/22 06:45:13;;;;;;;7.55;3.03;;;24.20;51.10;;;;;;5054661;28;20024;-52
2021/08/22 06:47:40;;;;;;;11.50;3.20;;;24.20;51.20;;;;;;5054170;28;20368;-53
2021/08/22 06:50:07;;;;;;;8.95;3.03;;;24.20;51.30;;;;;;5054826;28;20060;-53
2021/08/22 06:52:33;;;;;;;10.13;3.53;;;24.10;51.20;;;;;;5054603;28;20024;-52
2021/08/22 06:55:00;;;;;;;10.07;3.28;;;24.00;51.20;;;;;;5054510;28;20020;-53
2021/08/22 06:57:27;;;;;;;7.53;3.10;;;24.00;51.40;;;;;;5054373;28;20454;-53
2021/08/22 06:59:53;;;;;;;7.70;3.20;;;24.00;51.40;;;;;;5054359;28;20365;-53
2021/08/22 07:02:20;;;;;;;8.88;3.30;;;24.00;51.50;;;;;;5051665;28;20036;-52
2021/08/22 07:04:46;;;;;;;11.05;3.38;;;23.90;51.40;;;;;;5054234;28;20021;-53
2021/08/22 07:07:12;;;;;;;9.23;3.22;;;23.90;51.50;;;;;;5053391;28;20032;-52
2021/08/22 07:09:39;;;;;;;10.15;4.00;;;23.80;51.60;;;;;;5053599;28;20060;-53
2021/08/22 07:12:06;;;;;;;9.45;3.17;;;23.80;51.70;;;;;;5053998;28;20111;-52
2021/08/22 07:14:33;;;;;;;10.73;3.13;;;23.80;51.90;;;;;;5053893;28;20068;-53
2021/08/22 07:16:59;;;;;;;10.90;3.72;;;23.80;52.00;;;;;;5054424;28;20049;-52
2021/08/22 07:19:28;;;;;;;8.98;3.28;;;23.70;52.00;;;;;;5054312;28;20098;-52
2021/08/22 07:21:55;;;;;;;10.45;3.13;;;23.60;52.00;;;;;;5054041;28;20024;-53
2021/08/22 07:24:21;;;;;;;9.85;3.00;;;23.60;52.00;;;;;;5054239;28;20365;-53
2021/08/22 07:26:48;;;;;;;8.80;3.17;;;23.60;52.10;;;;;;5053904;28;20101;-52
2021/08/22 07:29:15;;;;;;;7.68;3.40;;;23.60;52.20;;;;;;5054078;28;20024;-53
2021/08/22 07:31:41;;;;;;;9.88;3.28;;;23.50;52.20;;;;;;5053231;28;20167;-52
2021/08/22 07:34:08;;;;;;;9.13;3.40;;;23.50;52.30;;;;;;5053860;28;20021;-53
2021/08/22 07:36:34;;;;;;;9.73;3.30;;;23.50;52.20;;;;;;5053416;28;20024;-52
2021/08/22 07:39:01;;;;;;;8.55;3.03;;;23.40;52.20;;;;;;5053417;28;20074;-53
2021/08/22 07:41:27;;;;;;;7.80;2.83;;;23.40;52.30;;;;;;5053742;28;20522;-53
2021/08/22 07:43:54;;;;;;;8.15;3.20;;;23.40;52.30;;;;;;5053673;28;20090;-52
2021/08/22 07:46:20;;;;;;;8.23;2.97;;;23.40;52.40;;;;;;5053712;28;20057;-53
2021/08/22 07:48:47;;;;;;;9.18;3.35;;;23.30;52.30;;;;;;5053423;28;20028;-53
2021/08/22 07:51:13;;;;;;;10.70;3.30;;;23.30;52.40;;;;;;5052992;28;20048;-53
2021/08/22 07:53:40;;;;;;;7.93;2.83;;;23.30;52.50;;;;;;5053840;28;20021;-52
2021/08/22 07:56:07;;;;;;;7.78;2.78;;;23.20;52.40;;;;;;5053557;28;20021;-52
2021/08/22 07:58:33;;;;;;;7.25;3.17;;;23.20;52.50;;;;;;5053643;28;20492;-53
2021/08/22 08:01:00;;;;;;;7.40;3.25;;;23.20;52.60;;;;;;5051962;28;20049;-52
2021/08/22 08:03:26;;;;;;;8.10;2.90;;;23.10;52.50;;;;;;5052717;28;20025;-53
2021/08/22 08:05:54;;;;;;;10.30;3.20;;;23.10;52.60;;;;;;5053239;28;20021;-52
2021/08/22 08:08:22;;;;;;;7.45;2.90;;;23.00;52.50;;;;;;5053634;28;20415;-53
2021/08/22 08:10:49;;;;;;;8.63;2.88;;;23.00;52.60;;;;;;5052780;28;20056;-53
2021/08/22 08:13:16;;;;;;;6.80;2.92;;;23.00;52.60;;;;;;5053185;28;20450;-53
2021/08/22 08:15:43;;;;;;;8.07;3.08;;;23.00;52.80;;;;;;5053078;28;20045;-52
2021/08/22 08:18:10;;;;;;;7.15;2.97;;;22.90;52.80;;;;;;5053343;28;20024;-53
2021/08/22 08:20:37;;;;;;;11.23;3.42;;;22.90;52.80;;;;;;5052462;28;20381;-53
2021/08/22 08:23:04;;;;;;;8.80;3.00;;;22.90;52.90;;;;;;5052702;28;20500;-53
2021/08/22 08:25:30;;;;;;;8.57;3.20;;;22.90;53.00;;;;;;5052922;28;20074;-52
2021/08/22 08:27:57;;;;;;;9.70;2.88;;;22.80;53.00;;;;;;5053505;28;20148;-53
2021/08/22 08:30:23;;;;;;;10.48;3.22;;;22.80;53.00;;;;;;5052956;28;20021;-53
2021/08/22 08:32:50;;;;;;;8.18;2.88;;;22.70;53.00;;;;;;5052648;28;20036;-52
2021/08/22 08:35:16;;;;;;;11.80;3.78;;;22.70;53.10;;;;;;5053081;28;20017;-52
2021/08/22 08:37:43;;;;;;;8.90;3.25;;;22.70;53.10;;;;;;5053236;28;20111;-53
2021/08/22 08:40:17;;;;;;;8.63;2.90;;;22.70;53.20;;;;;;5053072;28;20037;-52
2021/08/22 08:42:59;;;;;;;8.57;2.97;;;22.60;53.10;;;;;;5053339;28;20025;-53
2021/08/22 08:45:46;;;;;;;7.80;2.88;;;22.60;53.10;;;;;;5053157;28;20163;-52
2021/08/22 08:48:38;;;;;;;9.07;2.95;;;22.60;53.30;;;;;;5053091;28;20041;-53
2021/08/22 08:51:23;;;;;;;8.25;2.83;;;22.60;53.30;;;;;;5053125;28;20083;-53
2021/08/22 08:53:56;;;;;;;9.00;3.05;;;22.60;53.30;;;;;;5053589;28;20053;-52
2021/08/22 08:56:25;;;;;;;10.57;3.05;;;22.50;53.40;;;;;;5052718;28;20031;-53
2021/08/22 08:58:52;;;;;;;7.20;3.42;;;22.40;53.40;;;;;;5052891;28;20028;-52
2021/08/22 09:01:18;;;;;;;9.32;2.88;;;22.40;53.50;;;;;;5053413;28;20029;-52
2021/08/22 09:04:11;;;;;;;8.18;2.80;;;22.40;53.50;;;;;;5051833;28;20036;-52
2021/08/22 09:07:11;;;;;;;8.38;3.05;;;22.40;53.50;;;;;;5056717;28;20033;-52
2021/08/22 09:10:16;;;;;;;7.53;2.63;;;22.30;53.50;;;;;;5056607;28;20052;-53
2021/08/22 09:13:36;;;;;;;8.45;2.90;;;22.30;53.50;;;;;;5056448;28;20019;-53
2021/08/22 09:16:39;;;;;;;6.60;2.47;;;22.30;53.60;;;;;;5014217;28;20046;-53
2021/08/22 09:19:44;;;;;;;8.20;2.78;;;22.20;53.60;;;;;;5036961;28;20038;-53
2021/08/22 09:22:28;;;;;;;7.20;2.72;;;22.20;53.70;;;;;;5015471;28;20046;-52
2021/08/22 09:25:10;;;;;;;10.00;2.90;;;22.20;53.70;;;;;;5040591;28;20415;-53
2021/08/22 09:28:13;;;;;;;6.18;2.80;;;22.20;53.80;;;;;;5056347;28;20031;-53
2021/08/22 09:31:16;;;;;;;6.65;2.40;;;22.10;53.70;;;;;;5055859;28;20070;-53
2021/08/22 09:34:20;;;;;;;7.80;2.83;;;22.10;53.80;;;;;;5055371;28;20032;-53
2021/08/22 09:37:05;;;;;;;9.50;3.00;;;22.00;53.80;;;;;;5055977;28;20418;-52
2021/08/22 09:40:09;;;;;;;7.78;2.58;;;22.00;53.80;;;;;;5055516;28;20041;-53
2021/08/22 09:43:13;;;;;;;5.57;2.65;;;22.00;53.90;;;;;;5031620;28;20029;-53
2021/08/22 09:46:16;;;;;;;8.02;2.65;;;21.90;53.90;;;;;;5055147;28;20024;-53
2021/08/22 09:49:01;;;;;;;6.35;2.60;;;21.90;53.90;;;;;;5056081;28;20032;-53
2021/08/22 09:51:55;;;;;;;7.22;2.70;;;21.90;54.00;;;;;;5055142;28;20024;-53
2021/08/22 09:54:46;;;;;;;6.97;2.38;;;21.80;54.00;;;;;;5056510;28;20025;-53
2021/08/22 09:57:39;;;;;;;6.05;2.53;;;21.80;54.00;;;;;;5036287;28;20026;-53
2021/08/22 10:00:24;;;;;;;6.35;2.30;;;21.80;54.10;;;;;;5040333;28;20116;-53
2021/08/22 10:03:06;;;;;;;7.38;2.35;;;21.70;54.10;;;;;;5054344;28;20047;-52
2021/08/22 10:05:50;;;;;;;6.30;2.43;;;21.70;54.10;;;;;;5054030;28;20017;-51
2021/08/22 10:08:39;;;;;;;7.63;2.70;;;21.70;54.10;;;;;;5056317;28;20056;-52
2021/08/22 10:11:14;;;;;;;4.95;2.63;;;21.60;54.10;;;;;;5034690;28;20033;-53
2021/08/22 10:13:40;;;;;;;6.70;2.53;;;21.70;54.20;;;;;;5053656;28;20381;-52
2021/08/22 10:16:08;;;;;;;7.07;2.42;;;21.60;54.20;;;;;;5054642;28;20049;-51
2021/08/22 10:18:35;;;;;;;5.10;2.35;;;21.60;54.20;;;;;;5055204;28;20013;-53
2021/08/22 10:21:07;;;;;;;10.70;2.47;;;21.60;54.30;;;;;;5054933;28;20028;-53
2021/08/22 10:23:43;;;;;;;7.95;2.90;;;21.50;54.20;;;;;;5055754;28;20017;-53
2021/08/22 10:26:46;;;;;;;6.32;2.47;;;21.50;54.30;;;;;;5054855;28;20020;-53
2021/08/22 10:29:17;;;;;;;7.25;2.85;;;21.50;54.30;;;;;;5013156;28;20129;-53
2021/08/22 10:31:50;;;;;;;7.00;2.80;;;21.40;54.40;;;;;;5048044;28;20068;-53
2021/08/22 10:34:26;;;;;;;9.95;3.47;;;21.40;54.40;;;;;;5052848;28;20266;-53
2021/08/22 10:36:54;;;;;;;8.25;2.58;;;21.40;54.40;;;;;;5054939;28;20016;-52
2021/08/22 10:39:23;;;;;;;8.00;2.72;;;21.40;54.50;;;;;;5054923;28;20033;-52
2021/08/22 10:41:54;;;;;;;7.00;2.65;;;21.30;54.40;;;;;;5054758;28;20108;-52
2021/08/22 10:44:42;;;;;;;9.13;2.67;;;21.30;54.50;;;;;;5054296;28;20021;-52
2021/08/22 10:47:10;;;;;;;6.28;2.45;;;21.30;54.60;;;;;;5055192;28;20104;-53
2021/08/22 10:49:51;;;;;;;7.22;2.85;;;21.30;54.60;;;;;;5054400;28;20028;-52
2021/08/22 10:52:25;;;;;;;7.00;2.35;;;21.30;54.60;;;;;;5054780;28;20112;-52
2021/08/22 10:55:13;;;;;;;7.35;2.80;;;21.20;54.60;;;;;;5054512;28;20033;-52
2021/08/22 10:57:47;;;;;;;6.90;2.80;;;21.20;54.70;;;;;;5053743;28;20029;-53
2021/08/22 11:00:27;;;;;;;6.35;2.50;;;21.10;54.60;;;;;;5053796;28;20464;-53
2021/08/22 11:03:05;;;;;;;7.88;2.78;;;21.10;54.70;;;;;;5053484;28;20033;-53
2021/08/22 11:05:36;;;;;;;6.85;2.65;;;21.10;55.40;;;;;;5053563;28;20427;-52
2021/08/22 11:08:24;;;;;;;8.75;2.70;;;21.10;54.80;;;;;;5054597;28;20024;-53
2021/08/22 11:10:58;;;;;;;6.63;2.75;;;21.00;54.90;;;;;;5053634;28;20381;-53
2021/08/22 11:13:27;;;;;;;6.85;2.85;;;21.00;55.00;;;;;;5054231;28;20473;-52
2021/08/22 11:15:53;;;;;;;9.95;3.15;;;21.00;55.00;;;;;;5053979;28;20049;-53
2021/08/22 11:18:20;;;;;;;8.68;2.72;;;21.00;55.00;;;;;;5054079;28;20366;-53
2021/08/22 11:20:47;;;;;;;6.53;2.63;;;21.00;55.10;;;;;;5053358;28;20441;-53
2021/08/22 11:23:17;;;;;;;6.03;2.65;;;20.90;55.10;;;;;;5053789;28;20021;-53
2021/08/22 11:26:03;;;;;;;6.15;2.42;;;20.90;55.20;;;;;;5054585;28;20036;-53
2021/08/22 11:28:29;;;;;;;6.53;2.53;;;20.80;55.20;;;;;;5054273;28;20021;-53
2021/08/22 11:30:56;;;;;;;7.00;2.75;;;20.90;55.30;;;;;;5054128;28;20119;-53
2021/08/22 11:33:27;;;;;;;7.18;2.55;;;20.80;55.30;;;;;;5054147;28;20025;-53
2021/08/22 11:35:53;;;;;;;7.38;2.40;;;20.80;55.30;;;;;;5054186;28;20056;-53
2021/08/22 11:38:20;;;;;;;6.78;2.53;;;20.80;55.30;;;;;;5053778;28;20021;-53
2021/08/22 11:40:46;;;;;;;7.72;2.47;;;20.80;55.40;;;;;;5053656;28;20106;-53
2021/08/22 11:43:15;;;;;;;7.68;2.63;;;20.70;55.40;;;;;;5053967;28;20514;-53
2021/08/22 11:45:43;;;;;;;5.40;2.70;;;20.70;55.40;;;;;;5053891;28;20104;-52
2021/08/22 11:48:18;;;;;;;8.10;2.75;;;20.70;55.50;;;;;;5053044;28;20465;-53
2021/08/22 11:50:46;;;;;;;6.22;2.30;;;20.70;55.50;;;;;;5053475;28;20064;-53
2021/08/22 11:53:12;;;;;;;6.60;2.75;;;20.60;55.50;;;;;;5052970;28;20021;-52
2021/08/22 11:55:41;;;;;;;6.55;2.50;;;20.60;55.60;;;;;;5053885;28;20021;-52
2021/08/22 11:58:15;;;;;;;5.35;2.42;;;20.60;55.70;;;;;;5053280;28;20025;-52
2021/08/22 12:00:55;;;;;;;7.03;2.67;;;20.60;55.70;;;;;;5052793;28;20427;-52
2021/08/22 12:03:24;;;;;;;6.53;2.60;;;20.60;55.80;;;;;;5054358;28;20035;-52
2021/08/22 12:06:09;;;;;;;8.30;2.70;;;20.50;55.70;;;;;;5053724;28;20021;-52
2021/08/22 12:08:36;;;;;;;6.50;2.38;;;20.50;55.80;;;;;;5054015;28;20449;-52
2021/08/22 12:11:11;;;;;;;7.57;2.28;;;20.50;55.80;;;;;;5052730;28;20477;-52
2021/08/22 12:13:41;;;;;;;8.73;2.40;;;20.50;55.90;;;;;;5053159;28;20071;-52
2021/08/22 12:16:25;;;;;;;7.53;2.10;;;20.50;55.90;;;;;;5052711;28;20041;-52
2021/08/22 12:18:52;;;;;;;5.75;2.15;;;20.40;55.90;;;;;;5052796;28;20112;-52
2021/08/22 12:21:21;;;;;;;6.25;2.70;;;20.40;55.90;;;;;;5053611;28;20017;-52
2021/08/22 12:23:51;;;;;;;7.68;2.50;;;20.40;56.00;;;;;;5053605;28;20513;-52
2021/08/22 12:26:18;;;;;;;6.45;2.40;;;20.40;56.00;;;;;;5053491;28;20025;-53
2021/08/22 12:28:46;;;;;;;4.85;2.22;;;20.40;56.10;;;;;;5053319;28;20017;-53
2021/08/22 12:31:16;;;;;;;6.25;2.25;;;20.30;56.00;;;;;;5053117;28;20079;-53
2021/08/22 12:33:45;;;;;;;8.55;2.60;;;20.30;56.10;;;;;;5051753;28;20052;-52
2021/08/22 12:36:15;;;;;;;7.15;2.30;;;20.30;56.20;;;;;;5054573;28;20059;-53
2021/08/22 12:38:54;;;;;;;5.07;2.40;;;20.30;56.20;;;;;;5056836;28;20028;-53
2021/08/22 12:41:28;;;;;;;6.40;2.45;;;20.20;56.10;;;;;;5057329;28;20449;-52
2021/08/22 12:43:57;;;;;;;5.53;2.28;;;20.20;56.20;;;;;;5056623;28;20021;-52
2021/08/22 12:46:25;;;;;;;6.15;2.65;;;20.20;56.20;;;;;;5056444;28;20368;-52
2021/08/22 12:48:52;;;;;;;9.77;2.55;;;20.20;56.20;;;;;;5054841;28;20025;-52
2021/08/22 12:51:20;;;;;;;3.97;2.00;;;20.20;56.30;;;;;;5055625;28;20033;-53
2021/08/22 12:53:48;;;;;;;6.03;2.35;;;20.10;56.20;;;;;;5055833;28;20029;-52
2021/08/22 12:56:15;;;;;;;6.82;2.58;;;20.10;56.30;;;;;;5056734;28;20020;-53
2021/08/22 12:58:42;;;;;;;5.90;2.40;;;20.10;56.30;;;;;;5056684;28;20025;-52
2021/08/22 13:01:08;;;;;;;5.82;2.53;;;20.10;56.30;;;;;;5056352;28;20061;-52